sensor_id;sensor_type;location;lat;lon;timestamp;pressure;altitude;pressure_sealevel;temperature;humidity
54882;BME280;40775;51.448;4.742;2023-07-09T00:01:27;101563.13;;;24.60;100.00
54882;BME280;40775;51.448;4.742;2023-07-09T00:03:54;101564.97;;;24.58;100.00
54882;BME280;40775;51.448;4.742;2023-07-09T00:06:21;101570.34;;;24.58;100.00
54882;BME280;40775;51.448;4.742;2023-07-09T00:08:49;101568.59;;;24.57;100.00
54882;BME280;40775;51.448;4.742;2023-07-09T00:11:17;101574.03;;;24.54;100.00
54882;BME280;40775;51.448;4.742;2023-07-09T00:13:44;101576.88;;;24.48;100.00
54882;BME280;40775;51.448;4.742;2023-07-09T00:16:24;101575.97;;;24.49;100.00
54882;BME280;40775;51.448;4.742;2023-07-09T00:18:52;101571.56;;;24.46;100.00
54882;BME280;40775;51.448;4.742;2023-07-09T00:21:21;101574.38;;;24.42;100.00
54882;BME280;40775;51.448;4.742;2023-07-09T00:23:50;101584.19;;;24.43;100.00
54882;BME280;40775;51.448;4.742;2023-07-09T00:26:18;101579.84;;;24.35;100.00
54882;BME280;40775;51.448;4.742;2023-07-09T00:28:50;101585.31;;;24.32;100.00
54882;BME280;40775;51.448;4.742;2023-07-09T00:31:17;101578.34;;;24.24;100.00
54882;BME280;40775;51.448;4.742;2023-07-09T00:33:45;101581.06;;;24.22;100.00
54882;BME280;40775;51.448;4.742;2023-07-09T00:36:29;101586.41;;;24.24;100.00
54882;BME280;40775;51.448;4.742;2023-07-09T00:38:58;101589.28;;;24.16;100.00
54882;BME280;40775;51.448;4.742;2023-07-09T00:41:36;101595.75;;;24.06;100.00
54882;BME280;40775;51.448;4.742;2023-07-09T00:44:30;101589.91;;;23.89;100.00
54882;BME280;40775;51.448;4.742;2023-07-09T00:49:32;101598.06;;;23.84;100.00
54882;BME280;40775;51.448;4.742;2023-07-09T00:52:26;101591.03;;;23.79;100.00
54882;BME280;40775;51.448;4.742;2023-07-09T00:54:55;101597.31;;;23.78;100.00
54882;BME280;40775;51.448;4.742;2023-07-09T00:57:26;101598.38;;;23.70;100.00
54882;BME280;40775;51.448;4.742;2023-07-09T01:00:01;101592.91;;;23.75;100.00
54882;BME280;40775;51.448;4.742;2023-07-09T01:02:38;101591.13;;;23.74;100.00
54882;BME280;40775;51.448;4.742;2023-07-09T01:05:12;101590.22;;;23.75;100.00
54882;BME280;40775;51.448;4.742;2023-07-09T01:07:40;101609.06;;;23.72;100.00
54882;BME280;40775;51.448;4.742;2023-07-09T01:10:07;101602.22;;;23.59;100.00
54882;BME280;40775;51.448;4.742;2023-07-09T01:12:34;101599.56;;;23.54;100.00
54882;BME280;40775;51.448;4.742;2023-07-09T01:15:01;101602.38;;;23.48;100.00
54882;BME280;40775;51.448;4.742;2023-07-09T01:17:29;101604.06;;;23.52;100.00
54882;BME280;40775;51.448;4.742;2023-07-09T01:19:56;101614.84;;;23.51;100.00
54882;BME280;40775;51.448;4.742;2023-07-09T01:22:24;101616.75;;;23.44;100.00
54882;BME280;40775;51.448;4.742;2023-07-09T01:25:03;101609.69;;;23.41;100.00
54882;BME280;40775;51.448;4.742;2023-07-09T01:27:44;101619.56;;;23.38;100.00
54882;BME280;40775;51.448;4.742;2023-07-09T01:30:25;101618.72;;;23.36;100.00
54882;BME280;40775;51.448;4.742;2023-07-09T01:32:58;101610.75;;;23.33;100.00
54882;BME280;40775;51.448;4.742;2023-07-09T01:35:27;101617.16;;;23.24;100.00
54882;BME280;40775;51.448;4.742;2023-07-09T01:37:55;101616.34;;;23.21;100.00
54882;BME280;40775;51.448;4.742;2023-07-09T01:40:24;101613.56;;;23.25;100.00
54882;BME280;40775;51.448;4.742;2023-07-09T01:43:00;101619.94;;;23.20;100.00
54882;BME280;40775;51.448;4.742;2023-07-09T01:45:28;101612.81;;;23.19;100.00
54882;BME280;40775;51.448;4.742;2023-07-09T01:47:56;101616.41;;;23.18;100.00
54882;BME280;40775;51.448;4.742;2023-07-09T01:50:23;101620.13;;;23.10;100.00
54882;BME280;40775;51.448;4.742;2023-07-09T01:52:52;101621.03;;;23.09;100.00
54882;BME280;40775;51.448;4.742;2023-07-09T01:55:21;101621.03;;;23.09;100.00
54882;BME280;40775;51.448;4.742;2023-07-09T01:57:48;101611.28;;;23.05;100.00
54882;BME280;40775;51.448;4.742;2023-07-09T02:00:18;101612.25;;;23.03;100.00
54882;BME280;40775;51.448;4.742;2023-07-09T02:02:46;101621.22;;;22.99;100.00
54882;BME280;40775;51.448;4.742;2023-07-09T02:05:17;101619.44;;;22.98;100.00
54882;BME280;40775;51.448;4.742;2023-07-09T02:07:45;101615.06;;;22.94;100.00
54882;BME280;40775;51.448;4.742;2023-07-09T02:10:17;101615.84;;;23.02;100.00
54882;BME280;40775;51.448;4.742;2023-07-09T02:12:45;101616.78;;;22.98;100.00
54882;BME280;40775;51.448;4.742;2023-07-09T02:15:14;101622.16;;;22.96;100.00
54882;BME280;40775;51.448;4.742;2023-07-09T02:17:42;101612.34;;;22.95;100.00
54882;BME280;40775;51.448;4.742;2023-07-09T02:20:11;101621.28;;;22.96;100.00
54882;BME280;40775;51.448;4.742;2023-07-09T02:22:39;101616.88;;;22.92;100.00
54882;BME280;40775;51.448;4.742;2023-07-09T02:25:08;101621.44;;;22.88;100.00
54882;BME280;40775;51.448;4.742;2023-07-09T02:27:36;101622.34;;;22.87;100.00
54882;BME280;40775;51.448;4.742;2023-07-09T02:30:07;101617.97;;;22.81;100.00
54882;BME280;40775;51.448;4.742;2023-07-09T02:32:34;101620.63;;;22.83;100.00
54882;BME280;40775;51.448;4.742;2023-07-09T02:35:02;101622.38;;;22.86;100.00
54882;BME280;40775;51.448;4.742;2023-07-09T02:37:29;101613.53;;;22.79;100.00
54882;BME280;40775;51.448;4.742;2023-07-09T02:39:56;101616.22;;;22.79;100.00
54882;BME280;40775;51.448;4.742;2023-07-09T02:42:23;101619.84;;;22.73;100.00
54882;BME280;40775;51.448;4.742;2023-07-09T02:44:51;101620.78;;;22.74;100.00
54882;BME280;40775;51.448;4.742;2023-07-09T02:47:18;101621.72;;;22.70;100.00
54882;BME280;40775;51.448;4.742;2023-07-09T02:49:46;101622.56;;;22.72;100.00
54882;BME280;40775;51.448;4.742;2023-07-09T02:52:14;101622.63;;;22.69;100.00
54882;BME280;40775;51.448;4.742;2023-07-09T02:54:41;101620.88;;;22.66;100.00
54882;BME280;40775;51.448;4.742;2023-07-09T02:57:08;101624.38;;;22.70;100.00
54882;BME280;40775;51.448;4.742;2023-07-09T02:59:35;101624.50;;;22.64;100.00
54882;BME280;40775;51.448;4.742;2023-07-09T03:02:02;101621.72;;;22.70;100.00
54882;BME280;40775;51.448;4.742;2023-07-09T03:04:30;101620.91;;;22.65;100.00
54882;BME280;40775;51.448;4.742;2023-07-09T03:07:00;101621.69;;;22.71;100.00
54882;BME280;40775;51.448;4.742;2023-07-09T03:09:28;101618.06;;;22.75;100.00
54882;BME280;40775;51.448;4.742;2023-07-09T03:11:56;101619.97;;;22.67;100.00
54882;BME280;40775;51.448;4.742;2023-07-09T03:14:23;101611.97;;;22.66;100.00
54882;BME280;40775;51.448;4.742;2023-07-09T03:16:50;101619.16;;;22.64;100.00
54882;BME280;40775;51.448;4.742;2023-07-09T03:19:18;101615.63;;;22.62;100.00
54882;BME280;40775;51.448;4.742;2023-07-09T03:21:45;101612.94;;;22.62;100.00
54882;BME280;40775;51.448;4.742;2023-07-09T03:24:12;101613.91;;;22.58;100.00
54882;BME280;40775;51.448;4.742;2023-07-09T03:26:41;101623.69;;;22.59;100.00
54882;BME280;40775;51.448;4.742;2023-07-09T03:29:08;101620.13;;;22.58;100.00
54882;BME280;40775;51.448;4.742;2023-07-09T03:31:35;101615.66;;;22.59;100.00
54882;BME280;40775;51.448;4.742;2023-07-09T03:34:03;101626.44;;;22.56;100.00
54882;BME280;40775;51.448;4.742;2023-07-09T03:36:30;101620.16;;;22.57;100.00
54882;BME280;40775;51.448;4.742;2023-07-09T03:38:57;101622.84;;;22.57;100.00
54882;BME280;40775;51.448;4.742;2023-07-09T03:41:25;101619.38;;;22.51;100.00
54882;BME280;40775;51.448;4.742;2023-07-09T03:43:52;101618.44;;;22.54;100.00
54882;BME280;40775;51.448;4.742;2023-07-09T03:46:20;101629.09;;;22.56;100.00
54882;BME280;40775;51.448;4.742;2023-07-09T03:48:47;101623.84;;;22.51;100.00
54882;BME280;40775;51.448;4.742;2023-07-09T03:51:17;101626.63;;;22.43;100.00
54882;BME280;40775;51.448;4.742;2023-07-09T03:53:44;101621.38;;;22.37;100.00
54882;BME280;40775;51.448;4.742;2023-07-09T03:56:11;101633.88;;;22.35;100.00
54882;BME280;40775;51.448;4.742;2023-07-09T03:58:38;101624.06;;;22.36;100.00
54882;BME280;40775;51.448;4.742;2023-07-09T04:01:05;101634.00;;;22.29;100.00
54882;BME280;40775;51.448;4.742;2023-07-09T04:03:32;101630.50;;;22.24;100.00
54882;BME280;40775;51.448;4.742;2023-07-09T04:05:59;101633.19;;;22.24;100.00
54882;BME280;40775;51.448;4.742;2023-07-09T04:08:27;101630.47;;;22.27;100.00
54882;BME280;40775;51.448;4.742;2023-07-09T04:10:58;101626.94;;;22.25;100.00
54882;BME280;40775;51.448;4.742;2023-07-09T04:13:25;101628.69;;;22.26;100.00
54882;BME280;40775;51.448;4.742;2023-07-09T04:15:57;101624.16;;;22.30;100.00
54882;BME280;40775;51.448;4.742;2023-07-09T04:18:24;101630.34;;;22.33;100.00
54882;BME280;40775;51.448;4.742;2023-07-09T04:20:52;101617.84;;;22.35;100.00
54882;BME280;40775;51.448;4.742;2023-07-09T04:23:20;101626.75;;;22.36;100.00
54882;BME280;40775;51.448;4.742;2023-07-09T04:25:47;101626.66;;;22.40;100.00
54882;BME280;40775;51.448;4.742;2023-07-09T04:28:15;101631.06;;;22.44;100.00
54882;BME280;40775;51.448;4.742;2023-07-09T04:30:47;101630.31;;;22.35;100.00
54882;BME280;40775;51.448;4.742;2023-07-09T04:33:17;101629.41;;;22.37;100.00
54882;BME280;40775;51.448;4.742;2023-07-09T04:35:45;101618.56;;;22.45;100.00
54882;BME280;40775;51.448;4.742;2023-07-09T04:38:13;101628.38;;;22.44;100.00
54882;BME280;40775;51.448;4.742;2023-07-09T04:40:41;101624.50;;;22.64;100.00
54882;BME280;40775;51.448;4.742;2023-07-09T04:43:08;101630.59;;;22.72;100.00
54882;BME280;40775;51.448;4.742;2023-07-09T04:45:36;101621.56;;;22.79;100.00
54882;BME280;40775;51.448;4.742;2023-07-09T04:48:03;101628.63;;;22.85;100.00
54882;BME280;40775;51.448;4.742;2023-07-09T04:50:30;101637.44;;;22.91;100.00
54882;BME280;40775;51.448;4.742;2023-07-09T04:52:59;101636.41;;;22.98;100.00
54882;BME280;40775;51.448;4.742;2023-07-09T04:55:27;101630.00;;;23.07;100.00
54882;BME280;40775;51.448;4.742;2023-07-09T04:57:54;101635.22;;;23.15;100.00
54882;BME280;40775;51.448;4.742;2023-07-09T05:00:21;101626.19;;;23.19;100.00
54882;BME280;40775;51.448;4.742;2023-07-09T05:02:48;101637.63;;;23.30;100.00
54882;BME280;40775;51.448;4.742;2023-07-09T05:05:15;101632.25;;;23.30;100.00
54882;BME280;40775;51.448;4.742;2023-07-09T05:07:42;101633.91;;;23.37;100.00
54882;BME280;40775;51.448;4.742;2023-07-09T05:10:10;101631.88;;;23.48;100.00
54882;BME280;40775;51.448;4.742;2023-07-09T05:12:50;101628.13;;;23.55;100.00
54882;BME280;40775;51.448;4.742;2023-07-09T05:15:19;101641.66;;;23.49;100.00
54882;BME280;40775;51.448;4.742;2023-07-09T05:17:47;101636.09;;;23.61;100.00
54882;BME280;40775;51.448;4.742;2023-07-09T05:20:15;101635.69;;;23.80;100.00
54882;BME280;40775;51.448;4.742;2023-07-09T05:22:42;101632.94;;;23.83;100.00
54882;BME280;40775;51.448;4.742;2023-07-09T05:25:10;101634.75;;;23.84;100.00
54882;BME280;40775;51.448;4.742;2023-07-09T05:27:37;101626.41;;;23.96;100.00
54882;BME280;40775;51.448;4.742;2023-07-09T05:30:05;101629.72;;;24.07;100.00
54882;BME280;40775;51.448;4.742;2023-07-09T05:32:32;101635.88;;;24.12;100.00
54882;BME280;40775;51.448;4.742;2023-07-09T05:35:00;101625.13;;;24.14;100.00
54882;BME280;40775;51.448;4.742;2023-07-09T05:37:27;101623.16;;;24.20;100.00
54882;BME280;40775;51.448;4.742;2023-07-09T05:39:54;101632.78;;;24.30;100.00
54882;BME280;40775;51.448;4.742;2023-07-09T05:42:21;101637.03;;;24.41;100.00
54882;BME280;40775;51.448;4.742;2023-07-09T05:44:48;101624.25;;;24.50;100.00
54882;BME280;40775;51.448;4.742;2023-07-09T05:47:14;101630.34;;;24.57;100.00
54882;BME280;40775;51.448;4.742;2023-07-09T05:49:42;101636.53;;;24.59;100.00
54882;BME280;40775;51.448;4.742;2023-07-09T05:52:09;101647.72;;;24.78;100.00
54882;BME280;40775;51.448;4.742;2023-07-09T05:54:36;101643.13;;;24.81;100.00
54882;BME280;40775;51.448;4.742;2023-07-09T05:57:03;101628.53;;;24.93;100.00
54882;BME280;40775;51.448;4.742;2023-07-09T05:59:30;101633.63;;;25.04;100.00
54882;BME280;40775;51.448;4.742;2023-07-09T06:01:57;101640.59;;;25.11;100.00
54882;BME280;40775;51.448;4.742;2023-07-09T06:04:24;101636.56;;;25.27;100.00
54882;BME280;40775;51.448;4.742;2023-07-09T06:06:53;101637.19;;;25.37;100.00
54882;BME280;40775;51.448;4.742;2023-07-09T06:09:20;101635.31;;;25.39;100.00
54882;BME280;40775;51.448;4.742;2023-07-09T06:11:47;101626.88;;;25.52;100.00
54882;BME280;40775;51.448;4.742;2023-07-09T06:14:14;101623.66;;;25.71;100.00
54882;BME280;40775;51.448;4.742;2023-07-09T06:16:43;101634.38;;;25.72;100.00
54882;BME280;40775;51.448;4.742;2023-07-09T06:19:10;101624.13;;;25.85;100.00
54882;BME280;40775;51.448;4.742;2023-07-09T06:21:39;101627.47;;;25.93;100.00
54882;BME280;40775;51.448;4.742;2023-07-09T06:24:07;101626.34;;;26.00;100.00
54882;BME280;40775;51.448;4.742;2023-07-09T06:26:35;101613.19;;;26.19;100.00
54882;BME280;40775;51.448;4.742;2023-07-09T06:29:02;101627.28;;;26.27;100.00
54882;BME280;40775;51.448;4.742;2023-07-09T06:31:30;101617.97;;;26.39;100.00
54882;BME280;40775;51.448;4.742;2023-07-09T06:33:58;101615.06;;;26.45;100.00
54882;BME280;40775;51.448;4.742;2023-07-09T06:36:25;101615.50;;;26.59;100.00
54882;BME280;40775;51.448;4.742;2023-07-09T06:38:52;101613.72;;;26.58;100.00
54882;BME280;40775;51.448;4.742;2023-07-09T06:41:19;101619.19;;;26.82;100.00
54882;BME280;40775;51.448;4.742;2023-07-09T06:43:47;101630.47;;;26.93;100.00
54882;BME280;40775;51.448;4.742;2023-07-09T06:46:15;101631.53;;;26.89;100.00
54882;BME280;40775;51.448;4.742;2023-07-09T06:48:42;101629.66;;;27.17;100.00
54882;BME280;40775;51.448;4.742;2023-07-09T06:51:09;101640.31;;;27.20;100.00
54882;BME280;40775;51.448;4.742;2023-07-09T06:53:37;101637.94;;;27.36;100.00
54882;BME280;40775;51.448;4.742;2023-07-09T06:56:08;101637.59;;;27.45;100.00
54882;BME280;40775;51.448;4.742;2023-07-09T06:58:36;101637.06;;;27.59;100.00
54882;BME280;40775;51.448;4.742;2023-07-09T07:01:04;101632.06;;;27.73;100.00
54882;BME280;40775;51.448;4.742;2023-07-09T07:03:33;101642.75;;;27.76;100.00
54882;BME280;40775;51.448;4.742;2023-07-09T07:06:01;101637.75;;;27.89;100.00
54882;BME280;40775;51.448;4.742;2023-07-09T07:08:29;101632.22;;;27.92;100.00
54882;BME280;40775;51.448;4.742;2023-07-09T07:10:59;101625.94;;;27.91;100.00
54882;BME280;40775;51.448;4.742;2023-07-09T07:13:35;101623.72;;;28.02;100.00
54882;BME280;40775;51.448;4.742;2023-07-09T07:16:11;101629.19;;;28.01;100.00
54882;BME280;40775;51.448;4.742;2023-07-09T07:18:39;101626.84;;;28.14;100.00
54882;BME280;40775;51.448;4.742;2023-07-09T07:21:07;101626.16;;;28.32;100.00
54882;BME280;40775;51.448;4.742;2023-07-09T07:23:34;101624.44;;;28.29;100.00
54882;BME280;40775;51.448;4.742;2023-07-09T07:26:01;101623.78;;;28.67;100.00
54882;BME280;40775;51.448;4.742;2023-07-09T07:28:29;101618.84;;;28.56;100.00
54882;BME280;40775;51.448;4.742;2023-07-09T07:31:07;101615.53;;;28.49;100.00
54882;BME280;40775;51.448;4.742;2023-07-09T07:33:35;101621.75;;;28.93;100.00
54882;BME280;40775;51.448;4.742;2023-07-09T07:36:06;101620.56;;;28.79;100.00
54882;BME280;40775;51.448;4.742;2023-07-09T07:38:36;101621.88;;;29.11;100.00
54882;BME280;40775;51.448;4.742;2023-07-09T07:41:03;101617.88;;;28.99;100.00
54882;BME280;40775;51.448;4.742;2023-07-09T07:43:30;101622.28;;;29.22;100.00
54882;BME280;40775;51.448;4.742;2023-07-09T07:45:57;101621.31;;;29.23;100.00
54882;BME280;40775;51.448;4.742;2023-07-09T07:48:24;101625.03;;;29.41;100.00
54882;BME280;40775;51.448;4.742;2023-07-09T07:50:57;101623.28;;;29.40;100.00
54882;BME280;40775;51.448;4.742;2023-07-09T07:53:24;101624.25;;;29.58;100.00
54882;BME280;40775;51.448;4.742;2023-07-09T07:55:51;101618.84;;;29.58;100.00
54882;BME280;40775;51.448;4.742;2023-07-09T07:58:18;101613.53;;;29.94;100.00
54882;BME280;40775;51.448;4.742;2023-07-09T08:00:45;101613.16;;;29.82;100.00
54882;BME280;40775;51.448;4.742;2023-07-09T08:03:13;101598.31;;;30.10;100.00
54882;BME280;40775;51.448;4.742;2023-07-09T08:05:40;101603.28;;;30.00;100.00
54882;BME280;40775;51.448;4.742;2023-07-09T08:08:07;101603.38;;;30.18;100.00
54882;BME280;40775;51.448;4.742;2023-07-09T08:10:34;101600.31;;;30.42;100.00
54882;BME280;40775;51.448;4.742;2023-07-09T08:13:01;101608.44;;;30.42;100.00
54882;BME280;40775;51.448;4.742;2023-07-09T08:15:28;101610.28;;;30.42;100.00
54882;BME280;40775;51.448;4.742;2023-07-09T08:17:55;101602.63;;;30.50;100.00
54882;BME280;40775;51.448;4.742;2023-07-09T08:20:22;101613.84;;;30.79;100.00
54882;BME280;40775;51.448;4.742;2023-07-09T08:22:49;101605.25;;;30.52;100.00
54882;BME280;40775;51.448;4.742;2023-07-09T08:25:16;101600.19;;;30.63;100.00
54882;BME280;40775;51.448;4.742;2023-07-09T08:27:43;101603.88;;;30.79;100.00
54882;BME280;40775;51.448;4.742;2023-07-09T08:30:10;101603.50;;;30.69;100.00
54882;BME280;40775;51.448;4.742;2023-07-09T08:32:37;101607.38;;;30.98;100.00
54882;BME280;40775;51.448;4.742;2023-07-09T08:35:05;101599.28;;;31.14;100.00
54882;BME280;40775;51.448;4.742;2023-07-09T08:37:52;101600.97;;;31.34;100.00
54882;BME280;40775;51.448;4.742;2023-07-09T08:40:19;101603.41;;;31.23;100.00
54882;BME280;40775;51.448;4.742;2023-07-09T08:42:49;101601.50;;;31.41;100.00
54882;BME280;40775;51.448;4.742;2023-07-09T08:48:06;101603.47;;;31.54;100.00
54882;BME280;40775;51.448;4.742;2023-07-09T08:50:50;101590.50;;;31.59;100.00
54882;BME280;40775;51.448;4.742;2023-07-09T08:53:33;101589.66;;;31.75;100.00
54882;BME280;40775;51.448;4.742;2023-07-09T08:56:02;101590.84;;;31.86;100.00
54882;BME280;40775;51.448;4.742;2023-07-09T08:58:31;101594.25;;;32.06;100.00
54882;BME280;40775;51.448;4.742;2023-07-09T09:01:05;101590.91;;;32.01;100.00
54882;BME280;40775;51.448;4.742;2023-07-09T09:03:57;101592.66;;;32.02;100.00
54882;BME280;40775;51.448;4.742;2023-07-09T09:06:29;101584.69;;;32.14;100.00
54882;BME280;40775;51.448;4.742;2023-07-09T09:09:27;101583.34;;;32.21;100.00
54882;BME280;40775;51.448;4.742;2023-07-09T09:14:43;101580.00;;;32.48;100.00
54882;BME280;40775;51.448;4.742;2023-07-09T09:17:18;101587.94;;;32.67;100.00
54882;BME280;40775;51.448;4.742;2023-07-09T09:19:55;101578.22;;;32.93;100.00
54882;BME280;40775;51.448;4.742;2023-07-09T09:22:29;101567.81;;;33.13;100.00
54882;BME280;40775;51.448;4.742;2023-07-09T09:27:42;101563.16;;;33.01;100.00
54882;BME280;40775;51.448;4.742;2023-07-09T09:30:18;101561.81;;;32.94;100.00
54882;BME280;40775;51.448;4.742;2023-07-09T09:32:53;101561.16;;;33.19;100.00
54882;BME280;40775;51.448;4.742;2023-07-09T09:35:34;101564.63;;;33.21;100.00
54882;BME280;40775;51.448;4.742;2023-07-09T09:38:13;101566.50;;;33.21;100.00
54882;BME280;40775;51.448;4.742;2023-07-09T09:40:42;101570.84;;;33.09;100.00
54882;BME280;40775;51.448;4.742;2023-07-09T09:43:18;101580.78;;;33.24;100.00
54882;BME280;40775;51.448;4.742;2023-07-09T09:45:49;101588.19;;;33.36;100.00
54882;BME280;40775;51.448;4.742;2023-07-09T09:48:34;101581.53;;;33.69;100.00
54882;BME280;40775;51.448;4.742;2023-07-09T09:51:04;101585.31;;;33.95;100.00
54882;BME280;40775;51.448;4.742;2023-07-09T09:53:39;101585.22;;;33.96;100.00
54882;BME280;40775;51.448;4.742;2023-07-09T09:56:49;101580.00;;;33.65;100.00
54882;BME280;40775;51.448;4.742;2023-07-09T09:59:19;101585.06;;;33.85;100.00
54882;BME280;40775;51.448;4.742;2023-07-09T10:01:47;101584.22;;;34.12;100.00
54882;BME280;40775;51.448;4.742;2023-07-09T10:04:23;101585.31;;;34.36;100.00
54882;BME280;40775;51.448;4.742;2023-07-09T10:06:55;101600.91;;;34.34;100.00
54882;BME280;40775;51.448;4.742;2023-07-09T10:09:48;101598.75;;;34.39;100.00
54882;BME280;40775;51.448;4.742;2023-07-09T10:12:53;101594.56;;;34.60;100.00
54882;BME280;40775;51.448;4.742;2023-07-09T10:16:05;101586.91;;;34.53;100.00
54882;BME280;40775;51.448;4.742;2023-07-09T10:18:59;101591.13;;;34.44;100.00
54882;BME280;40775;51.448;4.742;2023-07-09T10:21:41;101595.25;;;34.37;100.00
54882;BME280;40775;51.448;4.742;2023-07-09T10:27:13;101619.53;;;34.94;100.00
54882;BME280;40775;51.448;4.742;2023-07-09T10:30:20;101629.03;;;35.01;100.00
54882;BME280;40775;51.448;4.742;2023-07-09T10:33:11;101633.53;;;35.27;100.00
54882;BME280;40775;51.448;4.742;2023-07-09T10:35:53;101628.09;;;35.53;100.00
54882;BME280;40775;51.448;4.742;2023-07-09T10:41:18;101613.56;;;35.40;100.00
54882;BME280;40775;51.448;4.742;2023-07-09T10:44:02;101604.34;;;35.28;100.00
54882;BME280;40775;51.448;4.742;2023-07-09T10:46:36;101605.78;;;35.21;100.00
54882;BME280;40775;51.448;4.742;2023-07-09T10:49:10;101599.56;;;35.19;100.00
54882;BME280;40775;51.448;4.742;2023-07-09T10:51:40;101605.69;;;35.22;100.00
54882;BME280;40775;51.448;4.742;2023-07-09T10:57:17;101609.59;;;35.69;100.00
54882;BME280;40775;51.448;4.742;2023-07-09T10:59:49;101618.50;;;35.35;100.00
54882;BME280;40775;51.448;4.742;2023-07-09T11:02:25;101620.06;;;35.88;100.00
54882;BME280;40775;51.448;4.742;2023-07-09T11:04:59;101629.69;;;35.81;100.00
54882;BME280;40775;51.448;4.742;2023-07-09T11:07:40;101633.41;;;35.80;100.00
54882;BME280;40775;51.448;4.742;2023-07-09T11:10:31;101639.88;;;35.53;100.00
54882;BME280;40775;51.448;4.742;2023-07-09T11:13:15;101649.63;;;35.45;100.00
54882;BME280;40775;51.448;4.742;2023-07-09T11:15:48;101649.94;;;35.53;100.00
54882;BME280;40775;51.448;4.742;2023-07-09T11:18:32;101649.47;;;35.59;100.00
54882;BME280;40775;51.448;4.742;2023-07-09T11:21:08;101656.94;;;35.44;100.00
54882;BME280;40775;51.448;4.742;2023-07-09T11:23:51;101657.34;;;35.25;100.00
54882;BME280;40775;51.448;4.742;2023-07-09T11:26:25;101658.44;;;35.23;100.00
54882;BME280;40775;51.448;4.742;2023-07-09T11:31:39;101659.94;;;34.75;100.00
54882;BME280;40775;51.448;4.742;2023-07-09T11:37:00;101669.84;;;34.90;100.00
54882;BME280;40775;51.448;4.742;2023-07-09T11:42:26;101677.03;;;34.37;100.00
54882;BME280;40775;51.448;4.742;2023-07-09T11:45:16;101683.78;;;34.17;100.00
54882;BME280;40775;51.448;4.742;2023-07-09T11:48:08;101687.78;;;34.12;100.00
54882;BME280;40775;51.448;4.742;2023-07-09T11:50:45;101682.72;;;34.34;100.00
54882;BME280;40775;51.448;4.742;2023-07-09T11:53:46;101694.00;;;34.14;100.00
54882;BME280;40775;51.448;4.742;2023-07-09T11:56:14;101693.13;;;34.13;100.00
54882;BME280;40775;51.448;4.742;2023-07-09T11:58:57;101692.81;;;34.18;100.00
54882;BME280;40775;51.448;4.742;2023-07-09T12:01:33;101694.63;;;34.04;100.00
54882;BME280;40775;51.448;4.742;2023-07-09T12:04:03;101701.59;;;34.37;100.00
54882;BME280;40775;51.448;4.742;2023-07-09T12:06:33;101697.25;;;33.92;100.00
54882;BME280;40775;51.448;4.742;2023-07-09T12:09:02;101696.13;;;34.23;100.00
54882;BME280;40775;51.448;4.742;2023-07-09T12:11:32;101701.91;;;34.04;98.95
54882;BME280;40775;51.448;4.742;2023-07-09T12:14:16;101697.25;;;33.92;100.00
54882;BME280;40775;51.448;4.742;2023-07-09T12:16:48;101702.69;;;33.92;100.00
54882;BME280;40775;51.448;4.742;2023-07-09T12:19:20;101686.41;;;33.62;100.00
54882;BME280;40775;51.448;4.742;2023-07-09T12:21:57;101690.31;;;33.43;100.00
54882;BME280;40775;51.448;4.742;2023-07-09T12:24:35;101681.16;;;33.44;100.00
54882;BME280;40775;51.448;4.742;2023-07-09T12:27:16;101675.88;;;33.41;100.00
54882;BME280;40775;51.448;4.742;2023-07-09T12:29:44;101679.25;;;33.31;100.00
54882;BME280;40775;51.448;4.742;2023-07-09T12:32:15;101690.34;;;33.28;100.00
54882;BME280;40775;51.448;4.742;2023-07-09T12:34:49;101679.53;;;33.26;100.00
54882;BME280;40775;51.448;4.742;2023-07-09T12:37:17;101685.50;;;33.03;100.00
54882;BME280;40775;51.448;4.742;2023-07-09T12:39:45;101691.06;;;32.85;100.00
54882;BME280;40775;51.448;4.742;2023-07-09T12:42:34;101691.84;;;32.42;100.00
54882;BME280;40775;51.448;4.742;2023-07-09T12:45:19;101680.34;;;32.37;100.00
54882;BME280;40775;51.448;4.742;2023-07-09T12:47:47;101664.78;;;32.70;100.00
54882;BME280;40775;51.448;4.742;2023-07-09T12:50:34;101665.19;;;32.33;100.00
54882;BME280;40775;51.448;4.742;2023-07-09T12:53:18;101669.91;;;32.29;100.00
54882;BME280;40775;51.448;4.742;2023-07-09T12:55:50;101671.66;;;32.30;100.00
54882;BME280;40775;51.448;4.742;2023-07-09T12:58:25;101674.19;;;32.17;100.00
54882;BME280;40775;51.448;4.742;2023-07-09T13:00:55;101686.63;;;32.06;100.00
54882;BME280;40775;51.448;4.742;2023-07-09T13:03:28;101696.06;;;31.83;100.00
54882;BME280;40775;51.448;4.742;2023-07-09T13:06:02;101695.78;;;31.87;100.00
54882;BME280;40775;51.448;4.742;2023-07-09T13:08:42;101707.53;;;31.71;100.00
54882;BME280;40775;51.448;4.742;2023-07-09T13:11:17;101707.75;;;31.50;100.00
54882;BME280;40775;51.448;4.742;2023-07-09T13:13:57;101701.44;;;30.98;100.00
54882;BME280;40775;51.448;4.742;2023-07-09T13:16:25;101706.19;;;31.29;100.00
54882;BME280;40775;51.448;4.742;2023-07-09T13:18:53;101692.34;;;31.33;100.00
54882;BME280;40775;51.448;4.742;2023-07-09T13:21:22;101707.72;;;31.16;100.00
54882;BME280;40775;51.448;4.742;2023-07-09T13:23:49;101721.16;;;31.01;100.00
54882;BME280;40775;51.448;4.742;2023-07-09T13:26:17;101782.53;;;30.85;100.00
54882;BME280;40775;51.448;4.742;2023-07-09T13:28:44;101866.91;;;30.79;100.00
54882;BME280;40775;51.448;4.742;2023-07-09T13:31:16;101932.53;;;30.67;100.00